sensor_id;sensor_type;location;lat;lon;timestamp;pressure;altitude;pressure_sealevel;temperature;humidity
38466;BME280;24244;51.950;5.902;2023-05-22T00:00:17;101392.75;;;19.31;78.35
38466;BME280;24244;51.950;5.902;2023-05-22T00:02:44;101398.59;;;19.28;78.58
38466;BME280;24244;51.950;5.902;2023-05-22T00:05:13;101390.59;;;19.21;78.75
38466;BME280;24244;51.950;5.902;2023-05-22T00:07:40;101388.88;;;19.08;79.89
38466;BME280;24244;51.950;5.902;2023-05-22T00:10:09;101401.41;;;19.03;79.95
38466;BME280;24244;51.950;5.902;2023-05-22T00:12:37;101396.66;;;18.98;80.22
38466;BME280;24244;51.950;5.902;2023-05-22T00:15:06;101398.78;;;18.96;80.44
38466;BME280;24244;51.950;5.902;2023-05-22T00:17:33;101402.31;;;18.97;80.50
38466;BME280;24244;51.950;5.902;2023-05-22T00:20:00;101397.50;;;18.99;80.10
38466;BME280;24244;51.950;5.902;2023-05-22T00:22:33;101402.88;;;18.99;79.98
38466;BME280;24244;51.950;5.902;2023-05-22T00:25:01;101408.34;;;18.92;80.48
38466;BME280;24244;51.950;5.902;2023-05-22T00:27:28;101396.47;;;18.82;81.39
38466;BME280;24244;51.950;5.902;2023-05-22T00:29:54;101402.16;;;18.73;82.01
38466;BME280;24244;51.950;5.902;2023-05-22T00:32:23;101390.03;;;18.64;82.85
38466;BME280;24244;51.950;5.902;2023-05-22T00:34:50;101391.78;;;18.52;83.71
38466;BME280;24244;51.950;5.902;2023-05-22T00:37:17;101377.66;;;18.38;85.27
38466;BME280;24244;51.950;5.902;2023-05-22T00:39:45;101374.63;;;18.28;85.60
38466;BME280;24244;51.950;5.902;2023-05-22T00:42:12;101370.75;;;18.24;85.61
38466;BME280;24244;51.950;5.902;2023-05-22T00:44:40;101364.97;;;18.21;85.60
38466;BME280;24244;51.950;5.902;2023-05-22T00:47:07;101366.69;;;18.15;86.16
38466;BME280;24244;51.950;5.902;2023-05-22T00:49:35;101356.34;;;18.12;86.27
38466;BME280;24244;51.950;5.902;2023-05-22T00:52:02;101354.94;;;18.10;86.25
38466;BME280;24244;51.950;5.902;2023-05-22T00:54:31;101353.91;;;18.11;86.07
38466;BME280;24244;51.950;5.902;2023-05-22T00:56:59;101352.63;;;18.13;85.42
38466;BME280;24244;51.950;5.902;2023-05-22T00:59:28;101351.38;;;18.16;85.24
38466;BME280;24244;51.950;5.902;2023-05-22T01:01:55;101352.81;;;18.18;85.05
38466;BME280;24244;51.950;5.902;2023-05-22T01:04:23;101342.63;;;18.20;84.80
38466;BME280;24244;51.950;5.902;2023-05-22T01:06:52;101350.03;;;18.25;84.42
38466;BME280;24244;51.950;5.902;2023-05-22T01:09:19;101349.56;;;18.28;84.01
38466;BME280;24244;51.950;5.902;2023-05-22T01:11:51;101342.94;;;18.30;83.62
38466;BME280;24244;51.950;5.902;2023-05-22T01:14:24;101343.56;;;18.32;83.45
38466;BME280;24244;51.950;5.902;2023-05-22T01:17:01;101338.59;;;18.29;83.33
38466;BME280;24244;51.950;5.902;2023-05-22T01:19:51;101337.63;;;18.24;83.48
38466;BME280;24244;51.950;5.902;2023-05-22T01:22:32;101332.25;;;18.24;83.50
38466;BME280;24244;51.950;5.902;2023-05-22T01:25:14;101334.94;;;18.24;83.09
38466;BME280;24244;51.950;5.902;2023-05-22T01:28:10;101337.41;;;18.25;83.14
38466;BME280;24244;51.950;5.902;2023-05-22T01:30:56;101333.44;;;18.28;82.85
38466;BME280;24244;51.950;5.902;2023-05-22T01:33:27;101336.59;;;18.25;82.71
38466;BME280;24244;51.950;5.902;2023-05-22T01:36:00;101332.88;;;18.19;82.80
38466;BME280;24244;51.950;5.902;2023-05-22T01:38:28;101339.78;;;18.15;83.37
38466;BME280;24244;51.950;5.902;2023-05-22T01:40:57;101345.78;;;18.17;83.02
38466;BME280;24244;51.950;5.902;2023-05-22T01:43:23;101343.66;;;18.19;82.84
38466;BME280;24244;51.950;5.902;2023-05-22T01:45:52;101337.22;;;18.20;82.82
38466;BME280;24244;51.950;5.902;2023-05-22T01:48:19;101337.84;;;18.22;82.61
38466;BME280;24244;51.950;5.902;2023-05-22T01:50:48;101342.63;;;18.20;82.54
38466;BME280;24244;51.950;5.902;2023-05-22T01:53:21;101349.03;;;18.19;82.83
38466;BME280;24244;51.950;5.902;2023-05-22T01:55:51;101349.03;;;18.19;82.65
38466;BME280;24244;51.950;5.902;2023-05-22T01:58:27;101346.13;;;18.21;82.45
38466;BME280;24244;51.950;5.902;2023-05-22T02:00:57;101339.56;;;18.17;82.67
38466;BME280;24244;51.950;5.902;2023-05-22T02:03:29;101339.56;;;18.17;82.56
38466;BME280;24244;51.950;5.902;2023-05-22T02:06:00;101340.59;;;18.16;82.55
38466;BME280;24244;51.950;5.902;2023-05-22T02:08:32;101335.66;;;18.13;82.57
38466;BME280;24244;51.950;5.902;2023-05-22T02:11:02;101329.06;;;18.09;82.68
38466;BME280;24244;51.950;5.902;2023-05-22T02:13:30;101333.03;;;18.06;82.69
38466;BME280;24244;51.950;5.902;2023-05-22T02:15:58;101338.88;;;18.03;83.03
38466;BME280;24244;51.950;5.902;2023-05-22T02:18:25;101338.03;;;18.03;82.90
38466;BME280;24244;51.950;5.902;2023-05-22T02:20:55;101332.44;;;18.04;82.78
38466;BME280;24244;51.950;5.902;2023-05-22T02:23:22;101334.88;;;18.06;82.50
38466;BME280;24244;51.950;5.902;2023-05-22T02:25:48;101325.16;;;18.05;82.51
38466;BME280;24244;51.950;5.902;2023-05-22T02:28:15;101323.38;;;17.98;82.42
38466;BME280;24244;51.950;5.902;2023-05-22T02:30:42;101320.38;;;17.88;83.04
38466;BME280;24244;51.950;5.902;2023-05-22T02:33:10;101313.41;;;17.81;83.22
38466;BME280;24244;51.950;5.902;2023-05-22T02:35:37;101311.59;;;17.75;83.61
38466;BME280;24244;51.950;5.902;2023-05-22T02:38:04;101311.41;;;17.70;83.50
38466;BME280;24244;51.950;5.902;2023-05-22T02:40:31;101308.34;;;17.66;83.85
38466;BME280;24244;51.950;5.902;2023-05-22T02:42:57;101307.31;;;17.67;83.68
38466;BME280;24244;51.950;5.902;2023-05-22T02:45:24;101307.09;;;17.69;83.37
38466;BME280;24244;51.950;5.902;2023-05-22T02:47:51;101314.09;;;17.70;83.37
38466;BME280;24244;51.950;5.902;2023-05-22T02:50:19;101310.78;;;17.74;82.95
38466;BME280;24244;51.950;5.902;2023-05-22T02:52:46;101304.34;;;17.75;82.91
38466;BME280;24244;51.950;5.902;2023-05-22T02:55:13;101298.59;;;17.72;82.68
38466;BME280;24244;51.950;5.902;2023-05-22T02:57:40;101295.94;;;17.65;82.97
38466;BME280;24244;51.950;5.902;2023-05-22T03:00:07;101296.38;;;17.62;83.32
38466;BME280;24244;51.950;5.902;2023-05-22T03:02:37;101296.16;;;17.64;82.99
38466;BME280;24244;51.950;5.902;2023-05-22T03:05:05;101297.44;;;17.61;82.59
38466;BME280;24244;51.950;5.902;2023-05-22T03:07:35;101293.28;;;17.58;82.89
38466;BME280;24244;51.950;5.902;2023-05-22T03:10:02;101289.97;;;17.56;82.72
38466;BME280;24244;51.950;5.902;2023-05-22T03:12:29;101302.38;;;17.57;82.68
38466;BME280;24244;51.950;5.902;2023-05-22T03:14:56;101296.19;;;17.57;82.64
38466;BME280;24244;51.950;5.902;2023-05-22T03:17:23;101297.22;;;17.56;82.44
38466;BME280;24244;51.950;5.902;2023-05-22T03:19:50;101300.16;;;17.54;82.43
38466;BME280;24244;51.950;5.902;2023-05-22T03:22:16;101300.94;;;17.55;82.42
38466;BME280;24244;51.950;5.902;2023-05-22T03:24:45;101300.94;;;17.55;82.22
38466;BME280;24244;51.950;5.902;2023-05-22T03:27:15;101301.19;;;17.53;82.40
38466;BME280;24244;51.950;5.902;2023-05-22T03:29:42;101303.88;;;17.53;82.22
38466;BME280;24244;51.950;5.902;2023-05-22T03:32:09;101302.22;;;17.52;82.08
38466;BME280;24244;51.950;5.902;2023-05-22T03:34:36;101298.09;;;17.50;81.91
38466;BME280;24244;51.950;5.902;2023-05-22T03:37:03;101291.34;;;17.41;82.15
38466;BME280;24244;51.950;5.902;2023-05-22T03:39:30;101293.88;;;17.36;82.60
38466;BME280;24244;51.950;5.902;2023-05-22T03:41:58;101300.28;;;17.35;82.32
38466;BME280;24244;51.950;5.902;2023-05-22T03:44:25;101297.00;;;17.33;82.44
38466;BME280;24244;51.950;5.902;2023-05-22T03:46:51;101293.72;;;17.31;82.33
38466;BME280;24244;51.950;5.902;2023-05-22T03:49:18;101291.22;;;17.29;82.21
38466;BME280;24244;51.950;5.902;2023-05-22T03:51:45;101289.56;;;17.28;82.13
38466;BME280;24244;51.950;5.902;2023-05-22T03:54:12;101294.94;;;17.28;82.34
38466;BME280;24244;51.950;5.902;2023-05-22T03:56:38;101290.41;;;17.29;82.40
38466;BME280;24244;51.950;5.902;2023-05-22T03:59:06;101289.00;;;17.26;82.39
38466;BME280;24244;51.950;5.902;2023-05-22T04:01:33;101285.69;;;17.24;82.20
38466;BME280;24244;51.950;5.902;2023-05-22T04:04:00;101296.44;;;17.24;82.17
38466;BME280;24244;51.950;5.902;2023-05-22T04:06:27;101298.28;;;17.23;82.29
38466;BME280;24244;51.950;5.902;2023-05-22T04:08:59;101290.44;;;17.22;82.17
38466;BME280;24244;51.950;5.902;2023-05-22T04:11:25;101294.16;;;17.21;82.16
38466;BME280;24244;51.950;5.902;2023-05-22T04:13:52;101298.13;;;17.18;82.12
38466;BME280;24244;51.950;5.902;2023-05-22T04:16:20;101294.84;;;17.16;82.29
38466;BME280;24244;51.950;5.902;2023-05-22T04:18:48;101296.91;;;17.14;82.26
38466;BME280;24244;51.950;5.902;2023-05-22T04:21:15;101292.19;;;17.10;82.48
38466;BME280;24244;51.950;5.902;2023-05-22T04:23:42;101294.03;;;17.09;82.67
38466;BME280;24244;51.950;5.902;2023-05-22T04:26:10;101290.53;;;17.09;82.59
38466;BME280;24244;51.950;5.902;2023-05-22T04:28:36;101293.22;;;17.09;82.53
38466;BME280;24244;51.950;5.902;2023-05-22T04:31:03;101294.03;;;17.09;82.19
38466;BME280;24244;51.950;5.902;2023-05-22T04:33:33;101302.16;;;17.03;82.70
38466;BME280;24244;51.950;5.902;2023-05-22T04:36:00;101299.06;;;16.99;82.80
38466;BME280;24244;51.950;5.902;2023-05-22T04:38:28;101299.28;;;16.98;82.54
38466;BME280;24244;51.950;5.902;2023-05-22T04:40:55;101296.84;;;16.90;82.83
38466;BME280;24244;51.950;5.902;2023-05-22T04:43:22;101297.88;;;16.89;82.84
38466;BME280;24244;51.950;5.902;2023-05-22T04:45:52;101304.28;;;16.88;82.78
38466;BME280;24244;51.950;5.902;2023-05-22T04:48:20;101308.22;;;16.85;83.06
38466;BME280;24244;51.950;5.902;2023-05-22T04:50:49;101306.16;;;16.87;83.00
38466;BME280;24244;51.950;5.902;2023-05-22T04:53:16;101306.56;;;16.91;82.91
38466;BME280;24244;51.950;5.902;2023-05-22T04:55:43;101307.16;;;16.93;82.82
38466;BME280;24244;51.950;5.902;2023-05-22T04:58:10;101305.06;;;16.95;82.78
38466;BME280;24244;51.950;5.902;2023-05-22T05:00:36;101312.31;;;16.94;82.79
38466;BME280;24244;51.950;5.902;2023-05-22T05:03:04;101309.00;;;16.92;82.87
38466;BME280;24244;51.950;5.902;2023-05-22T05:05:33;101299.09;;;16.93;82.82
38466;BME280;24244;51.950;5.902;2023-05-22T05:08:02;101302.59;;;16.93;83.17
38466;BME280;24244;51.950;5.902;2023-05-22T05:10:28;101312.09;;;16.96;82.70
38466;BME280;24244;51.950;5.902;2023-05-22T05:12:55;101311.06;;;16.97;82.79
38466;BME280;24244;51.950;5.902;2023-05-22T05:15:22;101316.44;;;16.97;82.91
38466;BME280;24244;51.950;5.902;2023-05-22T05:17:49;101314.34;;;16.99;82.67
38466;BME280;24244;51.950;5.902;2023-05-22T05:20:16;101321.59;;;16.92;83.03
38466;BME280;24244;51.950;5.902;2023-05-22T05:22:43;101334.03;;;16.86;83.49
38466;BME280;24244;51.950;5.902;2023-05-22T05:25:13;101329.97;;;16.70;84.80
38466;BME280;24244;51.950;5.902;2023-05-22T05:27:40;101329.78;;;16.65;85.32
38466;BME280;24244;51.950;5.902;2023-05-22T05:30:07;101330.59;;;16.66;85.27
38466;BME280;24244;51.950;5.902;2023-05-22T05:32:34;101333.13;;;16.61;85.16
38466;BME280;24244;51.950;5.902;2023-05-22T05:35:01;101328.31;;;16.56;85.37
38466;BME280;24244;51.950;5.902;2023-05-22T05:37:28;101332.66;;;16.57;85.30
38466;BME280;24244;51.950;5.902;2023-05-22T05:39:55;101332.47;;;16.52;85.29
38466;BME280;24244;51.950;5.902;2023-05-22T05:42:23;101336.63;;;16.41;85.67
38466;BME280;24244;51.950;5.902;2023-05-22T05:44:50;101337.88;;;16.39;85.94
38466;BME280;24244;51.950;5.902;2023-05-22T05:47:16;101345.97;;;16.26;87.00
38466;BME280;24244;51.950;5.902;2023-05-22T05:49:43;101341.22;;;16.21;87.27
38466;BME280;24244;51.950;5.902;2023-05-22T05:52:10;101341.63;;;16.25;86.94
38466;BME280;24244;51.950;5.902;2023-05-22T05:54:37;101347.00;;;16.25;86.90
38466;BME280;24244;51.950;5.902;2023-05-22T05:57:05;101350.06;;;16.28;86.87
38466;BME280;24244;51.950;5.902;2023-05-22T05:59:33;101349.88;;;16.30;86.77
38466;BME280;24244;51.950;5.902;2023-05-22T06:02:00;101358.53;;;16.32;87.02
38466;BME280;24244;51.950;5.902;2023-05-22T06:04:27;101349.03;;;16.36;86.69
38466;BME280;24244;51.950;5.902;2023-05-22T06:06:53;101346.78;;;16.39;86.64
38466;BME280;24244;51.950;5.902;2023-05-22T06:09:20;101350.88;;;16.42;86.37
38466;BME280;24244;51.950;5.902;2023-05-22T06:11:48;101347.78;;;16.38;86.85
38466;BME280;24244;51.950;5.902;2023-05-22T06:14:14;101352.34;;;16.31;87.59
38466;BME280;24244;51.950;5.902;2023-05-22T06:16:42;101356.47;;;16.27;87.70
38466;BME280;24244;51.950;5.902;2023-05-22T06:19:10;101355.25;;;16.23;88.20
38466;BME280;24244;51.950;5.902;2023-05-22T06:21:38;101347.84;;;16.19;88.89
38466;BME280;24244;51.950;5.902;2023-05-22T06:24:05;101357.31;;;16.21;88.96
38466;BME280;24244;51.950;5.902;2023-05-22T06:26:32;101362.06;;;16.26;88.83
38466;BME280;24244;51.950;5.902;2023-05-22T06:28:59;101369.66;;;16.35;88.66
38466;BME280;24244;51.950;5.902;2023-05-22T06:31:26;101362.44;;;16.36;88.88
38466;BME280;24244;51.950;5.902;2023-05-22T06:33:55;101356.47;;;16.40;89.08
38466;BME280;24244;51.950;5.902;2023-05-22T06:36:21;101353.16;;;16.45;88.61
38466;BME280;24244;51.950;5.902;2023-05-22T06:38:48;101360.34;;;16.51;88.63
38466;BME280;24244;51.950;5.902;2023-05-22T06:41:16;101369.03;;;16.53;88.83
38466;BME280;24244;51.950;5.902;2023-05-22T06:43:43;101368.59;;;16.56;89.00
38466;BME280;24244;51.950;5.902;2023-05-22T06:46:10;101365.50;;;16.59;89.29
38466;BME280;24244;51.950;5.902;2023-05-22T06:48:37;101366.72;;;16.70;89.14
38466;BME280;24244;51.950;5.902;2023-05-22T06:51:05;101372.09;;;16.76;89.04
38466;BME280;24244;51.950;5.902;2023-05-22T06:53:31;101364.84;;;16.83;88.93
38466;BME280;24244;51.950;5.902;2023-05-22T06:55:58;101361.06;;;16.91;88.88
38466;BME280;24244;51.950;5.902;2023-05-22T06:58:25;101367.66;;;17.02;88.40
38466;BME280;24244;51.950;5.902;2023-05-22T07:00:54;101362.03;;;17.10;88.28
38466;BME280;24244;51.950;5.902;2023-05-22T07:03:21;101370.88;;;17.17;88.48
38466;BME280;24244;51.950;5.902;2023-05-22T07:05:48;101364.22;;;17.26;87.94
38466;BME280;24244;51.950;5.902;2023-05-22T07:08:16;101368.28;;;17.35;88.03
38466;BME280;24244;51.950;5.902;2023-05-22T07:10:43;101368.88;;;17.44;87.50
38466;BME280;24244;51.950;5.902;2023-05-22T07:13:10;101368.00;;;17.50;87.92
38466;BME280;24244;51.950;5.902;2023-05-22T07:15:36;101378.69;;;17.56;87.83
38466;BME280;24244;51.950;5.902;2023-05-22T07:18:03;101374.13;;;17.64;87.53
38466;BME280;24244;51.950;5.902;2023-05-22T07:20:30;101375.94;;;17.70;87.54
38466;BME280;24244;51.950;5.902;2023-05-22T07:22:57;101370.75;;;17.75;87.76
38466;BME280;24244;51.950;5.902;2023-05-22T07:25:25;101369.88;;;17.81;88.00
38466;BME280;24244;51.950;5.902;2023-05-22T07:27:52;101369.81;;;17.87;87.84
38466;BME280;24244;51.950;5.902;2023-05-22T07:30:19;101366.03;;;17.95;88.14
38466;BME280;24244;51.950;5.902;2023-05-22T07:32:46;101362.25;;;18.03;87.75
38466;BME280;24244;51.950;5.902;2023-05-22T07:35:13;101365.50;;;18.11;87.26
38466;BME280;24244;51.950;5.902;2023-05-22T07:37:40;101363.56;;;18.18;87.15
38466;BME280;24244;51.950;5.902;2023-05-22T07:40:07;101369.47;;;18.27;87.12
38466;BME280;24244;51.950;5.902;2023-05-22T07:42:36;101376.44;;;18.34;86.69
38466;BME280;24244;51.950;5.902;2023-05-22T07:45:04;101380.91;;;18.40;86.51
38466;BME280;24244;51.950;5.902;2023-05-22T07:47:31;101378.19;;;18.47;86.41
38466;BME280;24244;51.950;5.902;2023-05-22T07:49:58;101375.41;;;18.54;86.32
38466;BME280;24244;51.950;5.902;2023-05-22T07:52:25;101382.16;;;18.63;86.24
38466;BME280;24244;51.950;5.902;2023-05-22T07:54:52;101378.97;;;18.72;86.23
38466;BME280;24244;51.950;5.902;2023-05-22T07:57:19;101383.00;;;18.82;85.87
38466;BME280;24244;51.950;5.902;2023-05-22T07:59:47;101387.28;;;18.89;85.81
38466;BME280;24244;51.950;5.902;2023-05-22T08:02:14;101384.50;;;18.96;85.59
38466;BME280;24244;51.950;5.902;2023-05-22T08:04:41;101382.28;;;19.04;85.48
38466;BME280;24244;51.950;5.902;2023-05-22T08:07:10;101387.38;;;19.12;85.25
38466;BME280;24244;51.950;5.902;2023-05-22T08:09:36;101388.72;;;19.22;85.22
38466;BME280;24244;51.950;5.902;2023-05-22T08:12:04;101391.09;;;19.30;84.97
38466;BME280;24244;51.950;5.902;2023-05-22T08:14:33;101398.50;;;19.34;84.71
38466;BME280;24244;51.950;5.902;2023-05-22T08:17:01;101400.03;;;19.42;84.43
38466;BME280;24244;51.950;5.902;2023-05-22T08:19:28;101393.75;;;19.48;84.25
38466;BME280;24244;51.950;5.902;2023-05-22T08:21:55;101392.03;;;19.53;84.28
38466;BME280;24244;51.950;5.902;2023-05-22T08:24:23;101391.69;;;19.62;84.16
38466;BME280;24244;51.950;5.902;2023-05-22T08:26:55;101387.28;;;19.67;83.93
38466;BME280;24244;51.950;5.902;2023-05-22T08:29:21;101383.66;;;19.73;84.12
38466;BME280;24244;51.950;5.902;2023-05-22T08:31:48;101394.09;;;19.81;83.51
38466;BME280;24244;51.950;5.902;2023-05-22T08:34:16;101391.66;;;19.91;83.18
38466;BME280;24244;51.950;5.902;2023-05-22T08:36:43;101386.63;;;20.07;82.62
38466;BME280;24244;51.950;5.902;2023-05-22T08:39:10;101386.88;;;20.17;82.11
38466;BME280;24244;51.950;5.902;2023-05-22T08:41:37;101384.88;;;20.24;81.09
38466;BME280;24244;51.950;5.902;2023-05-22T08:44:04;101377.22;;;20.32;80.95
38466;BME280;24244;51.950;5.902;2023-05-22T08:46:32;101375.25;;;20.40;80.33
38466;BME280;24244;51.950;5.902;2023-05-22T08:49:03;101373.03;;;20.48;80.15
38466;BME280;24244;51.950;5.902;2023-05-22T08:51:35;101371.03;;;20.55;80.07
38466;BME280;24244;51.950;5.902;2023-05-22T08:54:05;101371.13;;;20.60;79.98
38466;BME280;24244;51.950;5.902;2023-05-22T08:56:33;101370.31;;;20.71;78.90
38466;BME280;24244;51.950;5.902;2023-05-22T08:59:05;101363.13;;;20.77;79.02
38466;BME280;24244;51.950;5.902;2023-05-22T09:01:33;101364.84;;;20.83;79.13
38466;BME280;24244;51.950;5.902;2023-05-22T09:04:00;101358.50;;;20.89;79.21
38466;BME280;24244;51.950;5.902;2023-05-22T09:06:28;101363.78;;;20.96;79.00
38466;BME280;24244;51.950;5.902;2023-05-22T09:08:56;101360.34;;;21.00;78.89
38466;BME280;24244;51.950;5.902;2023-05-22T09:11:24;101359.63;;;21.05;78.73
38466;BME280;24244;51.950;5.902;2023-05-22T09:13:51;101358.66;;;21.11;78.50
38466;BME280;24244;51.950;5.902;2023-05-22T09:16:19;101363.72;;;21.19;78.24
38466;BME280;24244;51.950;5.902;2023-05-22T09:18:46;101357.34;;;21.25;77.96
38466;BME280;24244;51.950;5.902;2023-05-22T09:21:13;101354.75;;;21.30;77.51
38466;BME280;24244;51.950;5.902;2023-05-22T09:23:59;101354.34;;;21.38;77.48
38466;BME280;24244;51.950;5.902;2023-05-22T09:26:27;101349.03;;;21.43;76.86
38466;BME280;24244;51.950;5.902;2023-05-22T09:28:58;101349.69;;;21.51;76.73
38466;BME280;24244;51.950;5.902;2023-05-22T09:31:27;101356.25;;;21.55;76.70
38466;BME280;24244;51.950;5.902;2023-05-22T09:33:54;101354.34;;;21.55;76.20
38466;BME280;24244;51.950;5.902;2023-05-22T09:36:29;101349.78;;;21.56;76.15
38466;BME280;24244;51.950;5.902;2023-05-22T09:39:00;101346.00;;;21.57;76.05
38466;BME280;24244;51.950;5.902;2023-05-22T09:41:27;101352.47;;;21.56;75.96
38466;BME280;24244;51.950;5.902;2023-05-22T09:43:56;101359.53;;;21.57;75.88
38466;BME280;24244;51.950;5.902;2023-05-22T09:46:25;101348.72;;;21.57;76.01
38466;BME280;24244;51.950;5.902;2023-05-22T09:48:52;101350.34;;;21.58;76.12
38466;BME280;24244;51.950;5.902;2023-05-22T09:51:20;101343.88;;;21.59;76.14
38466;BME280;24244;51.950;5.902;2023-05-22T09:53:49;101345.53;;;21.60;75.85
38466;BME280;24244;51.950;5.902;2023-05-22T09:56:18;101346.44;;;21.65;73.17
38466;BME280;24244;51.950;5.902;2023-05-22T09:59:04;101340.34;;;21.75;72.57
38466;BME280;24244;51.950;5.902;2023-05-22T10:01:35;101336.34;;;21.77;73.03
38466;BME280;24244;51.950;5.902;2023-05-22T10:04:03;101333.69;;;21.82;73.45
38466;BME280;24244;51.950;5.902;2023-05-22T10:06:30;101338.63;;;21.85;73.53
38466;BME280;24244;51.950;5.902;2023-05-22T10:09:02;101328.13;;;21.89;73.60
38466;BME280;24244;51.950;5.902;2023-05-22T10:11:32;101327.41;;;21.94;73.69
38466;BME280;24244;51.950;5.902;2023-05-22T10:14:01;101331.84;;;22.00;73.71
38466;BME280;24244;51.950;5.902;2023-05-22T10:16:30;101328.38;;;22.04;73.82
38466;BME280;24244;51.950;5.902;2023-05-22T10:18:59;101331.19;;;22.09;73.75
38466;BME280;24244;51.950;5.902;2023-05-22T10:21:27;101321.78;;;22.17;73.53
38466;BME280;24244;51.950;5.902;2023-05-22T10:23:55;101321.38;;;22.25;73.14
38466;BME280;24244;51.950;5.902;2023-05-22T10:26:23;101322.59;;;22.34;73.08
38466;BME280;24244;51.950;5.902;2023-05-22T10:28:58;101316.50;;;22.44;72.98
38466;BME280;24244;51.950;5.902;2023-05-22T10:31:31;101332.06;;;22.53;72.97
38466;BME280;24244;51.950;5.902;2023-05-22T10:34:07;101323.72;;;22.60;72.81
38466;BME280;24244;51.950;5.902;2023-05-22T10:36:48;101326.00;;;22.68;72.80
38466;BME280;24244;51.950;5.902;2023-05-22T10:39:34;101321.25;;;22.75;72.59
38466;BME280;24244;51.950;5.902;2023-05-22T10:42:03;101317.50;;;22.81;72.41
38466;BME280;24244;51.950;5.902;2023-05-22T10:44:33;101315.38;;;22.83;72.30
38466;BME280;24244;51.950;5.902;2023-05-22T10:47:06;101318.09;;;22.83;72.42
38466;BME280;24244;51.950;5.902;2023-05-22T10:49:36;101314.06;;;22.86;72.42
38466;BME280;24244;51.950;5.902;2023-05-22T10:52:07;101318.72;;;22.90;72.46
38466;BME280;24244;51.950;5.902;2023-05-22T10:54:38;101315.22;;;22.95;71.99
38466;BME280;24244;51.950;5.902;2023-05-22T10:57:10;101316.63;;;22.97;71.09
38466;BME280;24244;51.950;5.902;2023-05-22T10:59:40;101320.19;;;23.03;70.63
38466;BME280;24244;51.950;5.902;2023-05-22T11:02:17;101319.94;;;23.04;70.50
38466;BME280;24244;51.950;5.902;2023-05-22T11:04:44;101316.75;;;23.08;70.29
38466;BME280;24244;51.950;5.902;2023-05-22T11:07:12;101311.59;;;23.11;70.54
38466;BME280;24244;51.950;5.902;2023-05-22T11:09:41;101309.72;;;23.12;70.33
38466;BME280;24244;51.950;5.902;2023-05-22T11:12:18;101315.13;;;23.12;70.12
38466;BME280;24244;51.950;5.902;2023-05-22T11:14:49;101316.22;;;23.11;70.51
38466;BME280;24244;51.950;5.902;2023-05-22T11:17:16;101315.38;;;23.10;70.67
38466;BME280;24244;51.950;5.902;2023-05-22T11:19:48;101312.97;;;23.09;70.81
38466;BME280;24244;51.950;5.902;2023-05-22T11:22:28;101311.03;;;23.09;70.67
38466;BME280;24244;51.950;5.902;2023-05-22T11:24:55;101313.50;;;23.11;70.71
38466;BME280;24244;51.950;5.902;2023-05-22T11:27:22;101304.88;;;23.14;70.54
38466;BME280;24244;51.950;5.902;2023-05-22T11:29:52;101307.31;;;23.15;70.27
38466;BME280;24244;51.950;5.902;2023-05-22T11:32:19;101308.66;;;23.13;69.45
38466;BME280;24244;51.950;5.902;2023-05-22T11:34:48;101298.38;;;23.15;69.10
38466;BME280;24244;51.950;5.902;2023-05-22T11:37:19;101296.19;;;23.17;69.19
38466;BME280;24244;51.950;5.902;2023-05-22T11:39:49;101296.75;;;23.19;69.25
38466;BME280;24244;51.950;5.902;2023-05-22T11:42:17;101297.91;;;23.23;69.70
38466;BME280;24244;51.950;5.902;2023-05-22T11:44:44;101303.88;;;23.25;69.61
38466;BME280;24244;51.950;5.902;2023-05-22T11:47:13;101297.94;;;23.28;69.69
38466;BME280;24244;51.950;5.902;2023-05-22T11:49:40;101294.69;;;23.31;69.79
38466;BME280;24244;51.950;5.902;2023-05-22T11:52:10;101296.66;;;23.35;70.05
38466;BME280;24244;51.950;5.902;2023-05-22T11:54:36;101293.16;;;23.40;69.59
38466;BME280;24244;51.950;5.902;2023-05-22T11:57:06;101282.88;;;23.42;69.44
38466;BME280;24244;51.950;5.902;2023-05-22T11:59:33;101289.13;;;23.42;69.39
38466;BME280;24244;51.950;5.902;2023-05-22T12:02:01;101291.28;;;23.40;69.54
38466;BME280;24244;51.950;5.902;2023-05-22T12:04:29;101293.16;;;23.40;69.60
38466;BME280;24244;51.950;5.902;2023-05-22T12:06:56;101287.47;;;23.41;69.73
38466;BME280;24244;51.950;5.902;2023-05-22T12:09:22;101287.75;;;23.40;69.55
38466;BME280;24244;51.950;5.902;2023-05-22T12:11:53;101290.19;;;23.41;69.67
38466;BME280;24244;51.950;5.902;2023-05-22T12:14:24;101287.47;;;23.41;69.39
38466;BME280;24244;51.950;5.902;2023-05-22T12:16:51;101290.84;;;23.49;68.37
38466;BME280;24244;51.950;5.902;2023-05-22T12:19:19;101279.50;;;23.57;67.11
38466;BME280;24244;51.950;5.902;2023-05-22T12:21:49;101283.31;;;23.61;66.90
38466;BME280;24244;51.950;5.902;2023-05-22T12:24:16;101280.91;;;23.64;66.48
38466;BME280;24244;51.950;5.902;2023-05-22T12:26:49;101275.53;;;23.69;66.81
38466;BME280;24244;51.950;5.902;2023-05-22T12:29:17;101270.69;;;23.76;66.54
38466;BME280;24244;51.950;5.902;2023-05-22T12:31:44;101278.59;;;23.83;66.88
38466;BME280;24244;51.950;5.902;2023-05-22T12:34:14;101280.00;;;23.91;66.80
38466;BME280;24244;51.950;5.902;2023-05-22T12:36:45;101275.41;;;23.96;66.46
38466;BME280;24244;51.950;5.902;2023-05-22T12:39:16;101279.53;;;23.99;65.59
38466;BME280;24244;51.950;5.902;2023-05-22T12:41:43;101278.97;;;24.02;65.69
38466;BME280;24244;51.950;5.902;2023-05-22T12:44:11;101273.03;;;24.05;65.45
38466;BME280;24244;51.950;5.902;2023-05-22T12:46:40;101273.38;;;24.13;65.43
38466;BME280;24244;51.950;5.902;2023-05-22T12:49:07;101269.09;;;24.23;65.21
38466;BME280;24244;51.950;5.902;2023-05-22T12:51:34;101268.03;;;24.29;65.53
38466;BME280;24244;51.950;5.902;2023-05-22T12:54:01;101263.44;;;24.34;65.11
38466;BME280;24244;51.950;5.902;2023-05-22T12:56:30;101266.72;;;24.41;64.97